This is the latest recevied weather packets stored in our database for station/object KE9DBJ-13. If no packets are shown the sender has not sent any weather packets the latest 10 day(s).
| Time | Temp. | Humidity | Pressure | Rain* | Wind** | Luminosity | Snow |
|---|---|---|---|---|---|---|---|
| 1778044202 | 11.67° C | 96% | 1007.1 hPa | 1.27 mm | - | - | - |
| 1778043602 | 12.22° C | 96% | 1006.8 hPa | 3.05 mm | - | - | - |
| 1778043002 | 12.22° C | 96% | 1006.9 hPa | 8.64 mm | - | - | - |
| 1778042402 | 13.33° C | 94% | 1005.9 hPa | 2.29 mm | - | - | - |
| 1778041803 | 14.44° C | 94% | 1005.6 hPa | 0 mm | - | - | - |
| 1778041203 | 15.56° C | 99% | 1005.5 hPa | 3.05 mm | - | - | - |
| 1778040603 | 15.56° C | 99% | 1005.5 hPa | 1.02 mm | - | - | - |
| 1778040003 | 15.56° C | 99% | 1005.7 hPa | 1.52 mm | - | - | - |
| 1778039403 | 15.56° C | 99% | 1005.4 hPa | 1.27 mm | - | - | - |
| 1778038803 | 15° C | 99% | 1005.6 hPa | 0 mm | - | - | - |
| 1778038202 | 15° C | 99% | 1005.6 hPa | 0 mm | - | - | - |
| 1778037602 | 15° C | 99% | 1005.7 hPa | 0 mm | - | - | - |
| 1778037002 | 15° C | 99% | 1005.9 hPa | 1.02 mm | - | - | - |
| 1778036402 | 15° C | 99% | 1006.1 hPa | 0 mm | - | - | - |
| 1778035802 | 15° C | 99% | 1006 hPa | 0 mm | - | - | - |
| 1778035202 | 15° C | 99% | 1006.2 hPa | 4.57 mm | - | - | - |
| 1778034602 | 15° C | 99% | 1006 hPa | 5.08 mm | - | - | - |
| 1778034002 | 15° C | 99% | 1006.3 hPa | 2.03 mm | - | - | - |
| 1778033402 | 15° C | 99% | 1006.7 hPa | 1.52 mm | - | - | - |
| 1778032802 | 15° C | 99% | 1006.4 hPa | 3.81 mm | - | - | - |
| 1778032203 | 15.56° C | 99% | 1006.1 hPa | 2.79 mm | - | - | - |
| 1778031603 | 15.56° C | 99% | 1006.5 hPa | 2.54 mm | - | - | - |
| 1778031003 | 15.56° C | 99% | 1006.5 hPa | 2.54 mm | - | - | - |
| 1778030403 | 15.56° C | 99% | 1006.5 hPa | 1.78 mm | - | - | - |
| 1778029803 | 15.56° C | 99% | 1006.4 hPa | 2.79 mm | - | - | - |
* Rain latest hour (hover to see other rain measurements)
** Current wind speed in m/s (hover to see current wind gust speed)